Bookmark and Share
Track history (hours):
 

Timmy Guidry

More information available from US FCC via Universal Licensing System.

Last reported at 2012-Sep-18 22:33 UTC. Time now 2014-Apr-23 12:43 UTC.
Position N 29°43' W 090°10'.
Warning: this ship's position is years out of date!

Length 20 m; draft 2.5 m.

Type: Tug. MMSI: 367033560.

NotesDate/timePositionNaut miles runAvg speedWind from/ knotsBaromVisibWave heightAir tempDewpointWater temp
2012-Sep-18 22:33N 29°43' W 090°10'6 6.2
2012-Sep-18 21:33N 29°47' W 090°04'0 0.1
2012-Sep-18 20:31N 29°47' W 090°04'  
2012-Sep-12 10:34N 29°39' W 090°06'0 0.0
2012-Sep-12 04:36N 29°39' W 090°06'0 0.0
2012-Sep-12 03:26N 29°39' W 090°06'0 0.0
2012-Sep-12 02:31N 29°39' W 090°06'0 0.0
2012-Sep-12 01:33N 29°39' W 090°06'0 0.0
2012-Sep-12 00:33N 29°39' W 090°06'2 1.7
2012-Sep-11 23:33N 29°40' W 090°08'4 4.0
2012-Sep-11 22:33N 29°41' W 090°13'1 0.3
2012-Sep-11 20:33N 29°41' W 090°12'4 3.9
2012-Sep-11 19:33N 29°40' W 090°08'1 1.2
2012-Sep-11 18:31N 29°39' W 090°07'0 0.0
2012-Sep-11 17:33N 29°39' W 090°07'0 0.0
2012-Sep-11 16:33N 29°39' W 090°07'0 0.0
2012-Sep-11 15:33N 29°39' W 090°07'0 0.1
2012-Sep-11 14:32N 29°39' W 090°06'0 0.0
2012-Sep-11 13:33N 29°39' W 090°06'0 0.0
2012-Sep-11 12:33N 29°39' W 090°06'0 0.0
2012-Sep-11 11:33N 29°39' W 090°06'0 0.0
2012-Sep-11 10:35N 29°39' W 090°06'0 0.0
2012-Sep-11 09:33N 29°39' W 090°06'0 0.0
2012-Sep-11 08:33N 29°39' W 090°06'0 0.0
2012-Sep-11 07:33N 29°39' W 090°06'0 0.0
2012-Sep-11 06:32N 29°39' W 090°06'0 0.0
2012-Sep-11 05:30N 29°39' W 090°06'0 0.0
2012-Sep-11 04:36N 29°39' W 090°06'0 0.0
2012-Sep-11 03:33N 29°39' W 090°06'0 0.0
2012-Sep-11 02:33N 29°39' W 090°06'0 0.0
2012-Sep-11 01:33N 29°39' W 090°06'0 0.0
2012-Sep-11 00:33N 29°39' W 090°06'0 0.0
2012-Sep-10 23:32N 29°39' W 090°06'0 0.0
2012-Sep-10 22:33N 29°39' W 090°06'0 0.0
2012-Sep-10 21:33N 29°39' W 090°06'0 0.0
2012-Sep-10 20:31N 29°39' W 090°06'0 0.0
2012-Sep-10 19:29N 29°39' W 090°06'0 0.0
2012-Sep-10 18:33N 29°39' W 090°06'0 0.0
2012-Sep-10 17:33N 29°39' W 090°06'0 0.0
2012-Sep-10 16:32N 29°39' W 090°06'  

Dump ship's entire track history

sailing weather and tide predictions

Timmy Guidry — WCU4699 — position and weather